Time;durP1;ratioP1;P1;durP2;ratioP2;P2;SDS_P1;SDS_P2;PMS_P1;PMS_P2;Temp;Humidity;BMP_temperature;BMP_pressure;BME280_temperature;BME280_humidity;BME280_pressure;Samples;Min_cycle;Max_cycle;Signal;HPM_P1;HPM_P2
2022/12/15 00:40:11;;;;;;;;;;;;;;;;;;5030075;28;20031;-63
2022/12/15 00:42:37;;;;;;;;;;;;;;;;;;5033001;28;20446;-65
2022/12/15 00:45:02;;;;;;;;;;;;;;;;;;5030343;28;20405;-64
2022/12/15 00:47:27;;;;;;;;;;;;;;;;;;5029746;28;19917;-63
2022/12/15 01:20:16;;;;;;;;;;;;;;;;;;5026617;28;20020;-64
2022/12/15 01:22:41;;;;;;;;;;;;;;;;;;5026481;28;20275;-64
2022/12/15 01:25:08;;;;;;;;;;;;;;;;;;5028866;28;20031;-63
2022/12/15 01:27:33;;;;;;;;;;;;;;;;;;5028118;28;20290;-65
2022/12/15 01:29:59;;;;;;;;;;;;;;;;;;5031610;28;19932;-62
2022/12/15 01:32:24;;;;;;;;;;;;;;;;;;5028552;28;19917;-63
2022/12/15 01:34:49;;;;;;;;;;;;;;;;;;5028286;28;19939;-64
2022/12/15 01:37:14;;;;;;;;;;;;;;;;;;5026818;28;19928;-64
2022/12/15 01:42:24;;;;;;;;;;;;;;;;;;5033119;28;19923;-65
2022/12/15 01:44:50;;;;;;;;;;;;;;;;;;5033760;28;19917;-63
2022/12/15 01:47:16;;;;;;;;;;;;;;;;;;5030800;28;19917;-63
2022/12/15 01:49:41;;;;;;;;;;;;;;;;;;5029353;28;19965;-63
2022/12/15 01:52:08;;;;;;;;;;;;;;;;;;5032595;28;20214;-65
2022/12/15 01:54:33;;;;;;;;;;;;;;;;;;5033380;28;20012;-63
2022/12/15 01:57:06;;;;;;;;;;;;;;;;;;5030001;28;19968;-63
2022/12/15 01:59:34;;;;;;;;;;;;;;;;;;5033846;28;19925;-65
2022/12/15 02:02:00;;;;;;;;;;;;;;;;;;5034172;28;19920;-65
2022/12/15 02:04:25;;;;;;;;;;;;;;;;;;5032895;28;19925;-65
2022/12/15 02:06:51;;;;;;;;;;;;;;;;;;5032121;28;19925;-64
2022/12/15 02:09:18;;;;;;;;;;;;;;;;;;5028163;28;20399;-64
2022/12/15 02:11:46;;;;;;;;;;;;;;;;;;5027290;28;19952;-64
2022/12/15 02:14:18;;;;;;;;;;;;;;;;;;5026948;28;20516;-63
2022/12/15 02:16:55;;;;;;;;;;;;;;;;;;5027188;28;20370;-63
2022/12/15 02:19:24;;;;;;;;;;;;;;;;;;5028576;28;19924;-63
2022/12/15 02:22:08;;;;;;;;;;;;;;;;;;5030035;28;19925;-63
2022/12/15 02:24:33;;;;;;;;;;;;;;;;;;5026745;28;19929;-64
2022/12/15 02:27:17;;;;;;;;;;;;;;;;;;5028226;28;20025;-64
2022/12/15 02:29:58;;;;;;;;;;;;;;;;;;5031177;28;19921;-65
2022/12/15 02:32:26;;;;;;;;;;;;;;;;;;5012755;28;19917;-63
2022/12/15 02:34:57;;;;;;;;;;;;;;;;;;5032908;28;19921;-64
2022/12/15 02:37:31;;;;;;;;;;;;;;;;;;5028891;28;19921;-64
2022/12/15 02:40:10;;;;;;;;;;;;;;;;;;5032356;28;19983;-65
2022/12/15 02:42:37;;;;;;;;;;;;;;;;;;5032492;28;19917;-64
2022/12/15 02:45:08;;;;;;;;;;;;;;;;;;5026110;28;19917;-66
2022/12/15 02:47:44;;;;;;;;;;;;;;;;;;5029738;28;19920;-63
2022/12/15 02:50:13;;;;;;;;;;;;;;;;;;5030926;28;20024;-66
2022/12/15 02:52:57;;;;;;;;;;;;;;;;;;5034305;28;19924;-67
2022/12/15 02:55:40;;;;;;;;;;;;;;;;;;5035374;28;19944;-64
2022/12/15 02:58:11;;;;;;;;;;;;;;;;;;5032779;28;20485;-64
2022/12/15 03:00:38;;;;;;;;;;;;;;;;;;5030567;28;20297;-65
2022/12/15 03:03:03;;;;;;;;;;;;;;;;;;5032030;28;19916;-66
2022/12/15 03:05:30;;;;;;;;;;;;;;;;;;5029846;28;20295;-64
2022/12/15 03:07:55;;;;;;;;;;;;;;;;;;5031105;28;19917;-64
2022/12/15 03:10:22;;;;;;;;;;;;;;;;;;5030837;28;19928;-64
2022/12/15 03:12:49;;;;;;;;;;;;;;;;;;5029527;28;19916;-63
2022/12/15 03:15:14;;;;;;;;;;;;;;;;;;5028076;28;19917;-63
2022/12/15 03:17:40;;;;;;;;;;;;;;;;;;5028567;28;20267;-64
2022/12/15 03:20:05;;;;;;;;;;;;;;;;;;5031891;28;19918;-63
2022/12/15 03:22:30;;;;;;;;;;;;;;;;;;5031373;28;19925;-65
2022/12/15 03:24:56;;;;;;;;;;;;;;;;;;5029623;28;20283;-64
2022/12/15 03:27:21;;;;;;;;;;;;;;;;;;5029552;28;20540;-62
2022/12/15 03:29:46;;;;;;;;;;;;;;;;;;5029724;28;19925;-64
2022/12/15 03:32:12;;;;;;;;;;;;;;;;;;5036267;28;20369;-65
2022/12/15 03:34:37;;;;;;;;;;;;;;;;;;5034390;28;19924;-64
2022/12/15 03:37:02;;;;;;;;;;;;;;;;;;5029481;28;19924;-63
2022/12/15 03:39:28;;;;;;;;;;;;;;;;;;5028327;28;19932;-65
2022/12/15 03:41:53;;;;;;;;;;;;;;;;;;5031152;28;19963;-64
2022/12/15 03:44:18;;;;;;;;;;;;;;;;;;5016032;28;20302;-65
2022/12/15 03:46:43;;;;;;;;;;;;;;;;;;5035079;28;19925;-66
2022/12/15 03:49:09;;;;;;;;;;;;;;;;;;5033785;28;20314;-65
2022/12/15 03:51:34;;;;;;;;;;;;;;;;;;5029747;28;19921;-62
2022/12/15 03:53:59;;;;;;;;;;;;;;;;;;5030418;28;19924;-64
2022/12/15 03:56:24;;;;;;;;;;;;;;;;;;5030684;28;19924;-64
2022/12/15 03:58:50;;;;;;;;;;;;;;;;;;5032404;28;20303;-63
2022/12/15 04:01:24;;;;;;;;;;;;;;;;;;5033286;28;19923;-65
2022/12/15 04:03:50;;;;;;;;;;;;;;;;;;5031494;28;19966;-64
2022/12/15 04:06:15;;;;;;;;;;;;;;;;;;5033816;28;19917;-63
2022/12/15 04:08:40;;;;;;;;;;;;;;;;;;5028058;28;19939;-64
2022/12/15 04:11:05;;;;;;;;;;;;;;;;;;5025815;28;19925;-64
2022/12/15 04:13:31;;;;;;;;;;;;;;;;;;5030611;28;20388;-64
2022/12/15 04:15:56;;;;;;;;;;;;;;;;;;5028025;28;19921;-67
2022/12/15 04:18:21;;;;;;;;;;;;;;;;;;5031020;28;19920;-64
2022/12/15 04:20:46;;;;;;;;;;;;;;;;;;5031376;28;19963;-64
2022/12/15 04:23:12;;;;;;;;;;;;;;;;;;5030434;28;20011;-65
2022/12/15 05:34:05;;;;;;;;;;;;;;;;;;5033919;28;20296;-64
2022/12/15 05:36:31;;;;;;;;;;;;;;;;;;5026401;28;19925;-64
2022/12/15 05:38:56;;;;;;;;;;;;;;;;;;5031204;28;20026;-63
2022/12/15 05:41:22;;;;;;;;;;;;;;;;;;5028012;28;20438;-66
2022/12/15 05:43:47;;;;;;;;;;;;;;;;;;5025416;28;19924;-64
2022/12/15 05:46:13;;;;;;;;;;;;;;;;;;5027569;28;19924;-64
2022/12/15 05:48:39;;;;;;;;;;;;;;;;;;5027867;28;19921;-66
2022/12/15 05:51:05;;;;;;;;;;;;;;;;;;5029081;28;20414;-66
2022/12/15 05:53:30;;;;;;;;;;;;;;;;;;5030038;28;19921;-64
2022/12/15 05:56:02;;;;;;;;;;;;;;;;;;5025958;28;19917;-67
2022/12/15 05:58:27;;;;;;;;;;;;;;;;;;5028828;28;19917;-65
2022/12/15 06:00:52;;;;;;;;;;;;;;;;;;5028043;28;19925;-66
2022/12/15 06:03:18;;;;;;;;;;;;;;;;;;5030302;28;19917;-67
2022/12/15 06:05:43;;;;;;;;;;;;;;;;;;5029468;28;19923;-64
2022/12/15 06:08:08;;;;;;;;;;;;;;;;;;5029303;28;19917;-67
2022/12/15 06:10:34;;;;;;;;;;;;;;;;;;5030195;28;19975;-67
2022/12/15 06:12:59;;;;;;;;;;;;;;;;;;5027324;28;19925;-68
2022/12/15 06:15:24;;;;;;;;;;;;;;;;;;5032756;28;19925;-67
2022/12/15 06:17:52;;;;;;;;;;;;;;;;;;5026960;28;19917;-65
2022/12/15 06:20:17;;;;;;;;;;;;;;;;;;5031141;28;19924;-65
2022/12/15 06:22:42;;;;;;;;;;;;;;;;;;5032787;28;19917;-63
2022/12/15 06:25:08;;;;;;;;;;;;;;;;;;5029906;28;19917;-63
2022/12/15 06:27:34;;;;;;;;;;;;;;;;;;5031719;28;19948;-64
2022/12/15 06:30:00;;;;;;;;;;;;;;;;;;5033594;28;19968;-63
2022/12/15 06:32:25;;;;;;;;;;;;;;;;;;5029598;28;20014;-64
2022/12/15 06:34:50;;;;;;;;;;;;;;;;;;5028659;28;19924;-64
2022/12/15 06:37:15;;;;;;;;;;;;;;;;;;5030569;28;19917;-65
2022/12/15 06:39:41;;;;;;;;;;;;;;;;;;5030043;28;19943;-63
2022/12/15 06:42:06;;;;;;;;;;;;;;;;;;5031057;28;19917;-64
2022/12/15 06:44:32;;;;;;;;;;;;;;;;;;5023680;28;20385;-65
2022/12/15 06:46:57;;;;;;;;;;;;;;;;;;5030063;28;20004;-64
2022/12/15 06:49:22;;;;;;;;;;;;;;;;;;5030868;28;19964;-63
2022/12/15 06:51:48;;;;;;;;;;;;;;;;;;5031203;28;19921;-66
2022/12/15 06:54:13;;;;;;;;;;;;;;;;;;5029469;28;19921;-64
2022/12/15 06:56:38;;;;;;;;;;;;;;;;;;5030312;28;19925;-63
2022/12/15 06:59:04;;;;;;;;;;;;;;;;;;5029255;28;19971;-64
2022/12/15 07:01:30;;;;;;;;;;;;;;;;;;5031070;28;19921;-64
2022/12/15 07:03:56;;;;;;;;;;;;;;;;;;5028478;28;19924;-64
2022/12/15 07:06:21;;;;;;;;;;;;;;;;;;5027004;28;19944;-64
2022/12/15 07:08:55;;;;;;;;;;;;;;;;;;5027274;28;19917;-63
2022/12/15 07:11:21;;;;;;;;;;;;;;;;;;5027242;28;19925;-66
2022/12/15 07:13:53;;;;;;;;;;;;;;;;;;5030350;28;19921;-64
2022/12/15 07:16:20;;;;;;;;;;;;;;;;;;5029234;28;19924;-64
2022/12/15 07:18:45;;;;;;;;;;;;;;;;;;5027783;28;19917;-65
2022/12/15 07:21:10;;;;;;;;;;;;;;;;;;5027176;28;19986;-65
2022/12/15 07:23:36;;;;;;;;;;;;;;;;;;5027921;28;19917;-64
2022/12/15 07:26:10;;;;;;;;;;;;;;;;;;5026382;28;20290;-66
2022/12/15 07:28:35;;;;;;;;;;;;;;;;;;5029664;28;20323;-65
2022/12/15 07:31:05;;;;;;;;;;;;;;;;;;5029644;28;19932;-65
2022/12/15 07:33:30;;;;;;;;;;;;;;;;;;5029964;28;19925;-63
2022/12/15 07:35:56;;;;;;;;;;;;;;;;;;5022964;28;19917;-62
2022/12/15 07:38:21;;;;;;;;;;;;;;;;;;5023668;28;19917;-63
2022/12/15 07:40:47;;;;;;;;;;;;;;;;;;5027604;28;20345;-64
2022/12/15 07:43:13;;;;;;;;;;;;;;;;;;5028878;28;19917;-64
2022/12/15 07:45:38;;;;;;;;;;;;;;;;;;5028410;28;20470;-66
2022/12/15 07:48:03;;;;;;;;;;;;;;;;;;5030116;28;19917;-66
2022/12/15 07:50:29;;;;;;;;;;;;;;;;;;5029926;28;20302;-66
2022/12/15 07:52:54;;;;;;;;;;;;;;;;;;5030027;28;20302;-66
2022/12/15 07:55:19;;;;;;;;;;;;;;;;;;5022243;28;19921;-67
2022/12/15 07:57:47;;;;;;;;;;;;;;;;;;5023789;28;19956;-66
2022/12/15 08:00:13;;;;;;;;;;;;;;;;;;5027381;28;19921;-67
2022/12/15 08:02:42;;;;;;;;;;;;;;;;;;5029348;28;20062;-67
2022/12/15 08:05:08;;;;;;;;;;;;;;;;;;5025479;28;19917;-66
2022/12/15 08:07:33;;;;;;;;;;;;;;;;;;5028267;28;19921;-67
2022/12/15 08:09:58;;;;;;;;;;;;;;;;;;5029960;28;20024;-65
2022/12/15 08:12:23;;;;;;;;;;;;;;;;;;5028373;28;20377;-67
2022/12/15 08:14:49;;;;;;;;;;;;;;;;;;5028836;28;19913;-67
2022/12/15 08:17:14;;;;;;;;;;;;;;;;;;5019713;28;20032;-65
2022/12/15 08:19:40;;;;;;;;;;;;;;;;;;5028371;28;19917;-66
2022/12/15 08:22:05;;;;;;;;;;;;;;;;;;5025046;28;19924;-65
2022/12/15 08:24:30;;;;;;;;;;;;;;;;;;5024296;28;20023;-66
2022/12/15 08:26:56;;;;;;;;;;;;;;;;;;5020953;28;19913;-66
2022/12/15 08:29:21;;;;;;;;;;;;;;;;;;5024487;28;20062;-66
2022/12/15 08:31:46;;;;;;;;;;;;;;;;;;5025226;28;19975;-65
2022/12/15 08:34:12;;;;;;;;;;;;;;;;;;5022344;28;19971;-64
2022/12/15 08:36:37;;;;;;;;;;;;;;;;;;5020066;28;20010;-66
2022/12/15 08:39:02;;;;;;;;;;;;;;;;;;5028097;28;19918;-67
2022/12/15 08:41:29;;;;;;;;;;;;;;;;;;5027764;28;19917;-67
2022/12/15 08:43:55;;;;;;;;;;;;;;;;;;5027247;28;19924;-67
2022/12/15 08:46:22;;;;;;;;;;;;;;;;;;5028841;28;19913;-66
2022/12/15 08:48:48;;;;;;;;;;;;;;;;;;5028528;28;20417;-66
2022/12/15 08:51:14;;;;;;;;;;;;;;;;;;5027444;28;19917;-66
2022/12/15 08:53:39;;;;;;;;;;;;;;;;;;5028496;28;19921;-67
2022/12/15 08:56:09;;;;;;;;;;;;;;;;;;5030277;28;20424;-68
2022/12/15 08:58:34;;;;;;;;;;;;;;;;;;5023427;28;19917;-66
2022/12/15 09:01:00;;;;;;;;;;;;;;;;;;5024244;28;19924;-67
2022/12/15 09:03:26;;;;;;;;;;;;;;;;;;5025883;28;19917;-67
2022/12/15 09:05:51;;;;;;;;;;;;;;;;;;5025377;28;20402;-67
2022/12/15 09:08:17;;;;;;;;;;;;;;;;;;5025903;28;19917;-67
2022/12/15 09:10:42;;;;;;;;;;;;;;;;;;5026698;28;20059;-67
2022/12/15 09:13:07;;;;;;;;;;;;;;;;;;5025424;28;20390;-67
2022/12/15 09:15:32;;;;;;;;;;;;;;;;;;5024125;28;19935;-67
2022/12/15 09:17:58;;;;;;;;;;;;;;;;;;5027351;28;20444;-66
2022/12/15 09:20:23;;;;;;;;;;;;;;;;;;5028242;28;19917;-66
2022/12/15 09:22:48;;;;;;;;;;;;;;;;;;5024924;28;20398;-67
2022/12/15 09:25:14;;;;;;;;;;;;;;;;;;5024582;28;19966;-67
2022/12/15 09:27:39;;;;;;;;;;;;;;;;;;5022002;28;19917;-66
2022/12/15 09:30:05;;;;;;;;;;;;;;;;;;5026595;28;20530;-67
2022/12/15 09:32:31;;;;;;;;;;;;;;;;;;5027197;28;19929;-65
2022/12/15 09:34:56;;;;;;;;;;;;;;;;;;5027431;28;19917;-66
2022/12/15 09:37:21;;;;;;;;;;;;;;;;;;5025018;28;20363;-67
2022/12/15 09:39:47;;;;;;;;;;;;;;;;;;5009340;28;20408;-65
2022/12/15 09:42:39;;;;;;;;;;;;;;;;;;5024830;28;19921;-66
2022/12/15 09:45:18;;;;;;;;;;;;;;;;;;5027247;28;19939;-66
2022/12/15 09:48:04;;;;;;;;;;;;;;;;;;5028471;28;20012;-68
2022/12/15 09:50:33;;;;;;;;;;;;;;;;;;5031478;28;20193;-66
2022/12/15 09:52:59;;;;;;;;;;;;;;;;;;5031398;28;19971;-66
2022/12/15 09:55:34;;;;;;;;;;;;;;;;;;5029443;28;20025;-68
2022/12/15 09:58:11;;;;;;;;;;;;;;;;;;5029321;28;20442;-65
2022/12/15 10:00:39;;;;;;;;;;;;;;;;;;5026189;28;19939;-67
2022/12/15 10:03:23;;;;;;;;;;;;;;;;;;5029731;28;19913;-66
2022/12/15 10:05:51;;;;;;;;;;;;;;;;;;5028431;28;20550;-67
2022/12/15 10:08:17;;;;;;;;;;;;;;;;;;5029767;28;19928;-67
2022/12/15 10:10:43;;;;;;;;;;;;;;;;;;5028466;28;20040;-65
2022/12/15 10:13:11;;;;;;;;;;;;;;;;;;5028676;28;20658;-66
2022/12/15 10:16:09;;;;;;;;;;;;;;;;;;5024720;28;20403;-68
2022/12/15 10:18:38;;;;;;;;;;;;;;;;;;4986961;28;19917;-66
2022/12/15 10:21:03;;;;;;;;;;;;;;;;;;5023284;28;19917;-66
2022/12/15 10:23:28;;;;;;;;;;;;;;;;;;5025151;28;20284;-65
2022/12/15 10:26:13;;;;;;;;;;;;;;;;;;5030864;28;19913;-68
2022/12/15 10:28:44;;;;;;;;;;;;;;;;;;5021694;28;19913;-67
2022/12/15 10:31:12;;;;;;;;;;;;;;;;;;5023999;28;19917;-66
2022/12/15 10:33:40;;;;;;;;;;;;;;;;;;5031314;28;19940;-67
2022/12/15 10:36:09;;;;;;;;;;;;;;;;;;5029795;28;20482;-66
2022/12/15 10:38:39;;;;;;;;;;;;;;;;;;5026893;28;20394;-63
2022/12/15 10:41:13;;;;;;;;;;;;;;;;;;5029527;28;19921;-67
2022/12/15 10:43:39;;;;;;;;;;;;;;;;;;5024957;28;19940;-65
2022/12/15 10:46:07;;;;;;;;;;;;;;;;;;5027758;28;19917;-61
2022/12/15 10:48:33;;;;;;;;;;;;;;;;;;5012991;28;19913;-67
2022/12/15 10:51:13;;;;;;;;;;;;;;;;;;5029949;28;20441;-67
2022/12/15 10:53:40;;;;;;;;;;;;;;;;;;5029255;28;19917;-66
2022/12/15 10:56:07;;;;;;;;;;;;;;;;;;5028180;28;19952;-67
2022/12/15 10:58:44;;;;;;;;;;;;;;;;;;5026402;28;19924;-66
2022/12/15 11:01:16;;;;;;;;;;;;;;;;;;5027860;28;20264;-66
2022/12/15 11:03:41;;;;;;;;;;;;;;;;;;5030278;28;20482;-66
2022/12/15 11:06:13;;;;;;;;;;;;;;;;;;5025159;28;20069;-67
2022/12/15 11:08:40;;;;;;;;;;;;;;;;;;5028530;28;20366;-68
2022/12/15 11:14:10;;;;;;;;;;;;;;;;;;5024111;28;19967;-66
2022/12/15 11:16:42;;;;;;;;;;;;;;;;;;5011136;28;19917;-66
2022/12/15 11:19:13;;;;;;;;;;;;;;;;;;5025253;28;19913;-67
2022/12/15 11:21:44;;;;;;;;;;;;;;;;;;5025827;28;19939;-68
2022/12/15 11:24:10;;;;;;;;;;;;;;;;;;5023026;28;20031;-66
2022/12/15 11:26:43;;;;;;;;;;;;;;;;;;5023863;28;19996;-66
2022/12/15 11:29:29;;;;;;;;;;;;;;;;;;5025190;28;19920;-68
2022/12/15 11:31:55;;;;;;;;;;;;;;;;;;5019305;28;20012;-66
2022/12/15 11:34:22;;;;;;;;;;;;;;;;;;5028134;28;20462;-66
2022/12/15 11:36:51;;;;;;;;;;;;;;;;;;5028101;28;19964;-67
2022/12/15 11:39:16;;;;;;;;;;;;;;;;;;5022924;28;19913;-67
2022/12/15 11:41:58;;;;;;;;;;;;;;;;;;5030231;28;19917;-66
2022/12/15 11:44:23;;;;;;;;;;;;;;;;;;5030185;28;20379;-67
2022/12/15 11:47:07;;;;;;;;;;;;;;;;;;5028134;28;19927;-67
2022/12/15 11:49:44;;;;;;;;;;;;;;;;;;5028285;28;19924;-67
2022/12/15 11:52:35;;;;;;;;;;;;;;;;;;5029853;28;19961;-68
2022/12/15 11:55:03;;;;;;;;;;;;;;;;;;4998220;28;20051;-66
2022/12/15 11:57:35;;;;;;;;;;;;;;;;;;5025880;28;19933;-66
2022/12/15 12:00:07;;;;;;;;;;;;;;;;;;5030883;28;19954;-66
2022/12/15 12:02:38;;;;;;;;;;;;;;;;;;5030912;28;19967;-67
2022/12/15 12:05:04;;;;;;;;;;;;;;;;;;5025259;28;19917;-66
2022/12/15 12:07:29;;;;;;;;;;;;;;;;;;5025867;28;19928;-65
2022/12/15 12:10:13;;;;;;;;;;;;;;;;;;5029034;28;19917;-66
2022/12/15 12:12:48;;;;;;;;;;;;;;;;;;5024220;28;19921;-65
2022/12/15 12:15:32;;;;;;;;;;;;;;;;;;5022329;28;20000;-66
2022/12/15 12:18:00;;;;;;;;;;;;;;;;;;5023835;28;19959;-66
2022/12/15 12:20:39;;;;;;;;;;;;;;;;;;5025392;28;19921;-65
2022/12/15 12:23:14;;;;;;;;;;;;;;;;;;5021553;28;19917;-65
2022/12/15 12:25:47;;;;;;;;;;;;;;;;;;5024025;28;19925;-65
2022/12/15 12:28:18;;;;;;;;;;;;;;;;;;5023881;28;20481;-65
2022/12/15 12:30:45;;;;;;;;;;;;;;;;;;5020620;28;19917;-66
2022/12/15 12:33:32;;;;;;;;;;;;;;;;;;5019741;28;19920;-64
2022/12/15 12:36:08;;;;;;;;;;;;;;;;;;5020991;28;19917;-63
2022/12/15 12:38:47;;;;;;;;;;;;;;;;;;5030209;28;19917;-65
2022/12/15 12:41:20;;;;;;;;;;;;;;;;;;5030786;28;19913;-65
2022/12/15 12:43:49;;;;;;;;;;;;;;;;;;5030297;28;20004;-67
2022/12/15 12:46:15;;;;;;;;;;;;;;;;;;5027844;28;20347;-65
2022/12/15 12:48:49;;;;;;;;;;;;;;;;;;5027710;28;19917;-66
2022/12/15 12:51:20;;;;;;;;;;;;;;;;;;5027420;28;19921;-65
2022/12/15 12:53:46;;;;;;;;;;;;;;;;;;5025964;28;19920;-64
2022/12/15 12:56:30;;;;;;;;;;;;;;;;;;5026832;28;20440;-65
2022/12/15 12:58:55;;;;;;;;;;;;;;;;;;5026494;28;19957;-65
2022/12/15 13:01:31;;;;;;;;;;;;;;;;;;5029446;28;20391;-65
2022/12/15 13:04:07;;;;;;;;;;;;;;;;;;5027387;28;19917;-66
2022/12/15 13:06:33;;;;;;;;;;;;;;;;;;5027658;28;20382;-67
2022/12/15 13:09:18;;;;;;;;;;;;;;;;;;5027024;28;20009;-67
2022/12/15 13:11:44;;;;;;;;;;;;;;;;;;5027317;28;20321;-66
2022/12/15 13:14:12;;;;;;;;;;;;;;;;;;5024596;28;20015;-67
2022/12/15 13:16:38;;;;;;;;;;;;;;;;;;5026061;28;19948;-64
2022/12/15 13:19:05;;;;;;;;;;;;;;;;;;5023006;28;19918;-65
2022/12/15 13:21:40;;;;;;;;;;;;;;;;;;5027383;28;19924;-65
2022/12/15 13:24:16;;;;;;;;;;;;;;;;;;5029222;28;19921;-66
2022/12/15 13:26:43;;;;;;;;;;;;;;;;;;5025151;28;19918;-66
2022/12/15 13:29:13;;;;;;;;;;;;;;;;;;5024440;28;19943;-64
2022/12/15 13:31:42;;;;;;;;;;;;;;;;;;5026789;28;20406;-66
2022/12/15 13:34:12;;;;;;;;;;;;;;;;;;5028070;28;19967;-67
2022/12/15 13:36:38;;;;;;;;;;;;;;;;;;5026071;28;19917;-66
2022/12/15 13:39:23;;;;;;;;;;;;;;;;;;5028983;28;19928;-62
2022/12/15 13:41:50;;;;;;;;;;;;;;;;;;5023878;28;19930;-66
2022/12/15 13:44:30;;;;;;;;;;;;;;;;;;5027644;28;19917;-65
2022/12/15 13:46:58;;;;;;;;;;;;;;;;;;5026788;28;20228;-66
2022/12/15 13:49:32;;;;;;;;;;;;;;;;;;5024532;28;19921;-65
2022/12/15 13:52:01;;;;;;;;;;;;;;;;;;5026775;28;20225;-66
2022/12/15 13:54:32;;;;;;;;;;;;;;;;;;5026490;28;19918;-66
2022/12/15 13:57:05;;;;;;;;;;;;;;;;;;5026421;28;19987;-66
2022/12/15 13:59:44;;;;;;;;;;;;;;;;;;5024689;28;19925;-65
2022/12/15 14:02:29;;;;;;;;;;;;;;;;;;5025301;28;20007;-63
2022/12/15 14:05:09;;;;;;;;;;;;;;;;;;5026534;28;19978;-64
2022/12/15 14:07:35;;;;;;;;;;;;;;;;;;5027191;28;19952;-63
2022/12/15 14:10:00;;;;;;;;;;;;;;;;;;5027471;28;19947;-64
2022/12/15 14:12:26;;;;;;;;;;;;;;;;;;5024633;28;20291;-63
2022/12/15 14:14:51;;;;;;;;;;;;;;;;;;5026273;28;20440;-66
2022/12/15 14:17:18;;;;;;;;;;;;;;;;;;5024026;28;19932;-65
2022/12/15 14:19:45;;;;;;;;;;;;;;;;;;5024002;28;19940;-65
2022/12/15 14:22:22;;;;;;;;;;;;;;;;;;5025160;28;20004;-63
2022/12/15 14:24:48;;;;;;;;;;;;;;;;;;5024169;28;19964;-65
2022/12/15 14:27:27;;;;;;;;;;;;;;;;;;5018655;28;19918;-63
2022/12/15 14:30:16;;;;;;;;;;;;;;;;;;5020924;28;20336;-63
2022/12/15 14:32:42;;;;;;;;;;;;;;;;;;5019332;28;20052;-64
2022/12/15 14:35:13;;;;;;;;;;;;;;;;;;5025529;28;19913;-64
2022/12/15 14:37:39;;;;;;;;;;;;;;;;;;5021458;28;20272;-63
2022/12/15 14:40:04;;;;;;;;;;;;;;;;;;5032629;28;19924;-63
2022/12/15 14:42:30;;;;;;;;;;;;;;;;;;5031683;28;19921;-65
2022/12/15 14:44:55;;;;;;;;;;;;;;;;;;5031352;28;19920;-64
2022/12/15 14:47:23;;;;;;;;;;;;;;;;;;5031403;28;20426;-65
2022/12/15 14:49:49;;;;;;;;;;;;;;;;;;5031736;28;19921;-64
2022/12/15 14:52:34;;;;;;;;;;;;;;;;;;5027949;28;19944;-65
2022/12/15 14:55:01;;;;;;;;;;;;;;;;;;5029295;28;19956;-64
2022/12/15 14:57:27;;;;;;;;;;;;;;;;;;5027610;28;21936;-64
2022/12/15 14:59:53;;;;;;;;;;;;;;;;;;5027943;28;19999;-64
2022/12/15 15:02:18;;;;;;;;;;;;;;;;;;5026953;28;20008;-64
2022/12/15 15:04:53;;;;;;;;;;;;;;;;;;5030308;28;19917;-65
2022/12/15 15:07:18;;;;;;;;;;;;;;;;;;5026087;28;19971;-64
2022/12/15 15:09:44;;;;;;;;;;;;;;;;;;5025984;28;19929;-64
2022/12/15 15:12:12;;;;;;;;;;;;;;;;;;5023820;28;20004;-65
2022/12/15 15:14:40;;;;;;;;;;;;;;;;;;5028613;28;20367;-64
2022/12/15 15:17:08;;;;;;;;;;;;;;;;;;5025031;28;19917;-65
2022/12/15 15:19:35;;;;;;;;;;;;;;;;;;5029188;28;20390;-66
2022/12/15 15:22:01;;;;;;;;;;;;;;;;;;5023620;28;19923;-64
2022/12/15 15:24:33;;;;;;;;;;;;;;;;;;5029263;28;20375;-65
2022/12/15 15:27:36;;;;;;;;;;;;;;;;;;5028785;28;19917;-66
2022/12/15 15:30:11;;;;;;;;;;;;;;;;;;4968529;28;20025;-66
2022/12/15 15:32:47;;;;;;;;;;;;;;;;;;4968698;28;20062;-65
2022/12/15 15:35:13;;;;;;;;;;;;;;;;;;5003567;28;20433;-66
2022/12/15 15:37:38;;;;;;;;;;;;;;;;;;5030795;28;19960;-65
2022/12/15 15:40:05;;;;;;;;;;;;;;;;;;5030177;28;19936;-65
2022/12/15 15:42:31;;;;;;;;;;;;;;;;;;5030509;28;20479;-65
2022/12/15 15:44:56;;;;;;;;;;;;;;;;;;5030780;28;19996;-65
2022/12/15 15:47:25;;;;;;;;;;;;;;;;;;5027991;28;20399;-65
2022/12/15 15:49:53;;;;;;;;;;;;;;;;;;5028494;28;19913;-65
2022/12/15 15:52:18;;;;;;;;;;;;;;;;;;5026398;28;19965;-64
2022/12/15 15:54:44;;;;;;;;;;;;;;;;;;5028868;28;19983;-63
2022/12/15 15:57:14;;;;;;;;;;;;;;;;;;5025937;28;19952;-65
2022/12/15 15:59:41;;;;;;;;;;;;;;;;;;5025142;28;19917;-63
2022/12/15 16:02:08;;;;;;;;;;;;;;;;;;5027094;28;20453;-64
2022/12/15 16:04:35;;;;;;;;;;;;;;;;;;5027982;28;19918;-64
2022/12/15 16:07:02;;;;;;;;;;;;;;;;;;5023717;28;19918;-63
2022/12/15 16:09:28;;;;;;;;;;;;;;;;;;5023665;28;19917;-63
2022/12/15 16:11:53;;;;;;;;;;;;;;;;;;5028469;28;19983;-65
2022/12/15 16:14:18;;;;;;;;;;;;;;;;;;5024817;28;20007;-66
2022/12/15 16:16:44;;;;;;;;;;;;;;;;;;5023321;28;20299;-64
2022/12/15 16:19:11;;;;;;;;;;;;;;;;;;5021655;28;20370;-64
2022/12/15 16:21:36;;;;;;;;;;;;;;;;;;5025472;28;20509;-65
2022/12/15 16:24:09;;;;;;;;;;;;;;;;;;5025420;28;19925;-64
2022/12/15 16:26:37;;;;;;;;;;;;;;;;;;5023245;28;19972;-64
2022/12/15 16:29:10;;;;;;;;;;;;;;;;;;5030091;28;19917;-65
2022/12/15 16:31:36;;;;;;;;;;;;;;;;;;5031397;28;19921;-63
2022/12/15 16:34:02;;;;;;;;;;;;;;;;;;5023731;28;19932;-66
2022/12/15 16:36:27;;;;;;;;;;;;;;;;;;5012654;28;19913;-67
2022/12/15 16:38:53;;;;;;;;;;;;;;;;;;5030573;28;20382;-69
2022/12/15 16:41:18;;;;;;;;;;;;;;;;;;5030137;28;19913;-68
2022/12/15 16:43:44;;;;;;;;;;;;;;;;;;5029617;28;20295;-68
2022/12/15 16:46:13;;;;;;;;;;;;;;;;;;5027868;28;19917;-70
2022/12/15 16:48:39;;;;;;;;;;;;;;;;;;5027623;28;19924;-70
2022/12/15 16:51:06;;;;;;;;;;;;;;;;;;5028769;28;19921;-68
2022/12/15 16:53:33;;;;;;;;;;;;;;;;;;5027983;28;19933;-68
2022/12/15 16:55:59;;;;;;;;;;;;;;;;;;5024395;28;19917;-66
2022/12/15 16:58:25;;;;;;;;;;;;;;;;;;5024129;28;20433;-67
2022/12/15 17:00:52;;;;;;;;;;;;;;;;;;5025955;28;19960;-69
2022/12/15 17:03:18;;;;;;;;;;;;;;;;;;5025464;28;19917;-69
2022/12/15 17:05:47;;;;;;;;;;;;;;;;;;5028956;28;19925;-68
2022/12/15 17:08:26;;;;;;;;;;;;;;;;;;5023905;28;19917;-68
2022/12/15 17:10:52;;;;;;;;;;;;;;;;;;5024173;28;19921;-68
2022/12/15 17:13:18;;;;;;;;;;;;;;;;;;5029293;28;19924;-67
2022/12/15 17:15:43;;;;;;;;;;;;;;;;;;5026518;28;19971;-68
2022/12/15 17:18:11;;;;;;;;;;;;;;;;;;5027337;28;19948;-66
2022/12/15 17:20:37;;;;;;;;;;;;;;;;;;5028301;28;20397;-66
2022/12/15 17:23:04;;;;;;;;;;;;;;;;;;5027795;28;19924;-66
2022/12/15 17:25:37;;;;;;;;;;;;;;;;;;5027169;28;20025;-66
2022/12/15 17:28:02;;;;;;;;;;;;;;;;;;5024906;28;19925;-68
2022/12/15 17:30:28;;;;;;;;;;;;;;;;;;5025525;28;19921;-66
2022/12/15 17:32:53;;;;;;;;;;;;;;;;;;5025038;28;20004;-68
2022/12/15 17:35:18;;;;;;;;;;;;;;;;;;5029366;28;19924;-67
2022/12/15 17:37:44;;;;;;;;;;;;;;;;;;5027678;28;19917;-67
2022/12/15 17:40:20;;;;;;;;;;;;;;;;;;5028569;28;19928;-67
2022/12/15 17:42:46;;;;;;;;;;;;;;;;;;5028956;28;19939;-66
2022/12/15 17:45:22;;;;;;;;;;;;;;;;;;5026647;28;20382;-66
2022/12/15 17:47:48;;;;;;;;;;;;;;;;;;5022442;28;20379;-67
2022/12/15 17:50:13;;;;;;;;;;;;;;;;;;5029649;28;19974;-67
2022/12/15 17:52:39;;;;;;;;;;;;;;;;;;5027062;28;19942;-68
2022/12/15 17:55:16;;;;;;;;;;;;;;;;;;5024751;28;19972;-64
2022/12/15 17:57:41;;;;;;;;;;;;;;;;;;5022382;28;19949;-67
2022/12/15 18:00:19;;;;;;;;;;;;;;;;;;5025993;28;19948;-66
2022/12/15 18:02:44;;;;;;;;;;;;;;;;;;5025275;28;19953;-65
2022/12/15 18:05:09;;;;;;;;;;;;;;;;;;5024560;28;19949;-64
2022/12/15 18:07:35;;;;;;;;;;;;;;;;;;5031905;28;19917;-61
2022/12/15 18:10:00;;;;;;;;;;;;;;;;;;5030363;28;19917;-62
2022/12/15 18:12:31;;;;;;;;;;;;;;;;;;5032729;28;20445;-62
2022/12/15 18:14:57;;;;;;;;;;;;;;;;;;5031037;28;19943;-62
2022/12/15 18:17:23;;;;;;;;;;;;;;;;;;5030574;28;19999;-62
2022/12/15 18:19:48;;;;;;;;;;;;;;;;;;5030823;28;19925;-63
2022/12/15 18:22:19;;;;;;;;;;;;;;;;;;5009575;28;19994;-62
2022/12/15 18:24:45;;;;;;;;;;;;;;;;;;5030260;28;19917;-62
2022/12/15 18:27:20;;;;;;;;;;;;;;;;;;5029090;28;19914;-60
2022/12/15 18:29:45;;;;;;;;;;;;;;;;;;5030122;28;20398;-62
2022/12/15 18:32:10;;;;;;;;;;;;;;;;;;5025415;28;19921;-65
2022/12/15 18:34:36;;;;;;;;;;;;;;;;;;5033091;28;20018;-62
2022/12/15 18:37:01;;;;;;;;;;;;;;;;;;5032048;28;20371;-61
2022/12/15 18:39:26;;;;;;;;;;;;;;;;;;5031408;28;19913;-61
2022/12/15 18:41:53;;;;;;;;;;;;;;;;;;5030441;28;19913;-61
2022/12/15 18:44:23;;;;;;;;;;;;;;;;;;5031578;28;19917;-61
2022/12/15 18:46:49;;;;;;;;;;;;;;;;;;5030595;28;19966;-61
2022/12/15 18:49:14;;;;;;;;;;;;;;;;;;5028763;28;19920;-63
2022/12/15 18:51:40;;;;;;;;;;;;;;;;;;5029011;28;19925;-62
2022/12/15 18:54:05;;;;;;;;;;;;;;;;;;5027481;28;19924;-63
2022/12/15 18:56:31;;;;;;;;;;;;;;;;;;5028622;28;19925;-61
2022/12/15 18:58:56;;;;;;;;;;;;;;;;;;5028738;28;19917;-62
2022/12/15 19:01:22;;;;;;;;;;;;;;;;;;5030368;28;19964;-61
2022/12/15 19:03:47;;;;;;;;;;;;;;;;;;5031284;28;19924;-62
2022/12/15 19:06:23;;;;;;;;;;;;;;;;;;5012673;28;20357;-62
2022/12/15 19:08:49;;;;;;;;;;;;;;;;;;5027879;28;19925;-62
2022/12/15 19:11:18;;;;;;;;;;;;;;;;;;5029244;28;20291;-62
2022/12/15 19:13:44;;;;;;;;;;;;;;;;;;5028309;28;19949;-61
2022/12/15 19:16:14;;;;;;;;;;;;;;;;;;5026368;28;19924;-61
2022/12/15 19:23:53;;;;;;;;;;;;;;;;;;5023648;28;19996;-63